createdAt,value
2018-02-22T00:02:28.464Z,13.85
2018-02-22T00:04:58.475Z,15.30
2018-02-22T00:07:32.376Z,15.52
2018-02-22T00:10:00.464Z,16.10
2018-02-22T00:12:33.048Z,16.23
2018-02-22T00:15:02.024Z,14.40
2018-02-22T00:17:30.108Z,15.45
2018-02-22T00:20:08.599Z,14.68
2018-02-22T00:22:38.387Z,17.17
2018-02-22T00:25:08.423Z,16.20
2018-02-22T00:27:37.387Z,14.32
2018-02-22T00:30:05.467Z,14.05
2018-02-22T00:32:37.131Z,17.15
2018-02-22T00:35:05.951Z,15.38
2018-02-22T00:37:35.943Z,16.55
2018-02-22T00:40:06.708Z,14.70
2018-02-22T00:42:50.607Z,16.73
2018-02-22T00:45:19.611Z,16.60
2018-02-22T00:47:52.203Z,15.57
2018-02-22T00:50:21.271Z,15.27
2018-02-22T00:52:50.092Z,15.98
2018-02-22T00:55:20.023Z,16.60
2018-02-22T00:57:50.003Z,17.55
2018-02-22T01:00:23.815Z,16.62
2018-02-22T01:02:52.802Z,17.20
2018-02-22T01:05:21.787Z,17.27
2018-02-22T01:07:50.755Z,18.75
2018-02-22T01:10:21.923Z,17.50
2018-02-22T01:12:50.727Z,17.40
2018-02-22T01:15:20.463Z,18.67
2018-02-22T01:17:48.498Z,17.95
2018-02-22T01:20:16.579Z,19.50
2018-02-22T01:22:45.515Z,18.90
2018-02-22T01:25:19.318Z,16.87
2018-02-22T01:27:48.399Z,19.80
2018-02-22T01:30:19.954Z,20.02
2018-02-22T01:32:51.798Z,20.75
2018-02-22T01:35:19.825Z,20.60
2018-02-22T01:37:49.866Z,20.50
2018-02-22T01:40:19.890Z,19.85
2018-02-22T01:42:51.543Z,22.58
2018-02-22T01:45:19.606Z,19.10
2018-02-22T01:47:48.563Z,18.20
2018-02-22T01:50:16.627Z,18.98
2018-02-22T01:52:44.682Z,19.85
2018-02-22T01:55:20.462Z,19.90
2018-02-22T01:57:49.490Z,19.65
2018-02-22T02:00:21.434Z,21.27
2018-02-22T02:02:49.494Z,19.05
2018-02-22T02:05:17.935Z,22.27
2018-02-22T02:07:47.006Z,22.62
2018-02-22T02:10:16.039Z,19.85
2018-02-22T02:12:44.114Z,21.75
2018-02-22T02:15:12.174Z,20.10
2018-02-22T02:17:42.143Z,21.87
2018-02-22T02:20:10.231Z,21.52
2018-02-22T02:22:38.299Z,22.13
2018-02-22T02:25:06.383Z,20.20
2018-02-22T02:27:35.335Z,21.87
2018-02-22T02:30:03.402Z,21.37
2018-02-22T02:32:32.407Z,20.65
2018-02-22T02:35:01.459Z,20.77
2018-02-22T02:37:30.748Z,21.40
2018-02-22T02:40:10.338Z,20.92
2018-02-22T02:42:40.347Z,22.60
2018-02-22T02:45:08.411Z,21.35
2018-02-22T02:47:42.063Z,22.52
2018-02-22T02:50:13.218Z,19.92
2018-02-22T02:52:47.058Z,21.05
2018-02-22T02:55:20.071Z,20.95
2018-02-22T02:57:50.830Z,20.15
2018-02-22T03:00:18.928Z,21.27
2018-02-22T03:02:48.907Z,21.87
2018-02-22T03:05:16.950Z,22.70
2018-02-22T03:07:44.998Z,22.27
2018-02-22T03:10:13.846Z,20.55
2018-02-22T03:12:41.898Z,21.15
2018-02-22T03:15:10.990Z,21.55
2018-02-22T03:17:39.374Z,21.75
2018-02-22T03:20:14.219Z,22.00
2018-02-22T03:22:42.262Z,22.25
2018-02-22T03:25:17.747Z,20.88
2018-02-22T03:27:45.822Z,21.90
2018-02-22T03:30:13.931Z,23.30
2018-02-22T03:32:42.910Z,22.40
2018-02-22T03:35:13.778Z,20.45
2018-02-22T03:37:41.866Z,22.10
2018-02-22T03:40:09.922Z,22.05
2018-02-22T03:42:37.979Z,21.85
2018-02-22T03:45:09.642Z,20.67
2018-02-22T03:47:41.298Z,21.90
2018-02-22T03:50:09.406Z,22.45
2018-02-22T03:52:38.434Z,21.92
2018-02-22T03:55:06.506Z,22.15
2018-02-22T03:57:36.226Z,22.15
2018-02-22T04:00:07.591Z,21.52
2018-02-22T04:02:37.594Z,21.02
2018-02-22T04:05:08.806Z,23.02
2018-02-22T04:07:38.622Z,21.65
2018-02-22T04:10:08.629Z,22.08
2018-02-22T04:12:40.978Z,21.67
2018-02-22T04:15:09.014Z,23.02
2018-02-22T04:17:38.942Z,21.95
2018-02-22T04:20:10.121Z,21.15
2018-02-22T04:22:38.143Z,22.60
2018-02-22T04:25:07.182Z,22.08
2018-02-22T04:27:35.210Z,22.90
2018-02-22T04:30:03.250Z,21.67
2018-02-22T04:32:31.281Z,21.92
2018-02-22T04:35:00.222Z,22.50
2018-02-22T04:37:34.243Z,21.75
2018-02-22T04:40:14.990Z,19.75
2018-02-22T04:42:46.614Z,23.65
2018-02-22T04:45:16.638Z,20.77
2018-02-22T04:47:44.698Z,23.90
2018-02-22T04:50:14.718Z,21.45
2018-02-22T04:52:42.758Z,21.05
2018-02-22T04:55:10.822Z,21.73
2018-02-22T04:57:44.666Z,20.88
2018-02-22T05:00:18.874Z,20.17
2018-02-22T05:02:46.902Z,22.80
2018-02-22T05:05:14.946Z,21.98
2018-02-22T05:07:44.642Z,21.23
2018-02-22T05:10:13.446Z,22.85
2018-02-22T05:12:41.499Z,21.33
2018-02-22T05:15:11.291Z,23.23
2018-02-22T05:17:40.286Z,20.92
2018-02-22T05:20:11.947Z,19.73
2018-02-22T05:22:40.942Z,22.52
2018-02-22T05:25:08.962Z,22.25
2018-02-22T05:27:44.242Z,20.42
2018-02-22T05:30:13.238Z,20.67
2018-02-22T05:32:41.294Z,22.30
2018-02-22T05:35:09.327Z,19.62
2018-02-22T05:37:37.368Z,18.60
2018-02-22T05:40:07.170Z,18.33
2018-02-22T05:42:35.966Z,20.20
2018-02-22T05:45:04.774Z,19.42
2018-02-22T05:47:39.358Z,20.17
2018-02-22T05:50:08.371Z,19.77
2018-02-22T05:52:38.202Z,20.70
2018-02-22T05:55:06.238Z,20.33
2018-02-22T05:57:42.697Z,19.52
2018-02-22T06:00:18.218Z,20.75
2018-02-22T06:02:47.258Z,19.80
2018-02-22T06:05:16.062Z,21.23
2018-02-22T06:07:45.079Z,22.00
2018-02-22T06:10:13.106Z,21.58
2018-02-22T06:12:43.837Z,21.83
2018-02-22T06:15:16.809Z,20.37
2018-02-22T06:17:44.882Z,19.45
2018-02-22T06:20:13.862Z,19.90
2018-02-22T06:22:59.105Z,17.35
2018-02-22T06:25:27.146Z,18.45
2018-02-22T06:27:55.198Z,18.67
2018-02-22T06:30:24.014Z,17.70
2018-02-22T06:32:54.023Z,18.52
2018-02-22T06:35:30.014Z,21.10
2018-02-22T06:37:58.054Z,20.70
2018-02-22T06:40:29.831Z,20.00
2018-02-22T06:42:58.601Z,20.60
2018-02-22T06:45:27.569Z,19.95
2018-02-22T06:47:56.365Z,19.25
2018-02-22T06:50:24.409Z,20.80
2018-02-22T06:52:54.461Z,20.48
2018-02-22T06:55:22.496Z,19.45
2018-02-22T06:57:53.850Z,18.80
2018-02-22T07:00:22.646Z,19.73
2018-02-22T07:02:51.458Z,18.15
2018-02-22T07:05:19.514Z,17.10
2018-02-22T07:07:48.317Z,18.87
2018-02-22T07:10:18.302Z,19.17
2018-02-22T07:12:47.281Z,20.10
2018-02-22T07:15:16.269Z,18.87
2018-02-22T07:17:46.289Z,20.25
2018-02-22T07:20:23.625Z,20.90
2018-02-22T07:22:51.657Z,19.00
2018-02-22T07:25:20.497Z,18.92
2018-02-22T07:27:50.473Z,19.15
2018-02-22T07:30:18.513Z,19.40
2018-02-22T07:32:46.541Z,19.33
2018-02-22T07:35:15.590Z,20.25
2018-02-22T07:37:45.586Z,19.12
2018-02-22T07:40:15.377Z,19.35
2018-02-22T07:42:47.161Z,20.70
2018-02-22T07:45:15.197Z,18.75
2018-02-22T07:47:51.581Z,18.30
2018-02-22T07:50:19.621Z,16.52
2018-02-22T07:52:48.565Z,21.17
2018-02-22T07:55:18.493Z,19.50
2018-02-22T07:57:47.287Z,18.42
2018-02-22T08:00:17.961Z,17.67
2018-02-22T08:02:49.137Z,16.98
2018-02-22T08:05:18.056Z,16.77
2018-02-22T08:07:49.804Z,17.17
2018-02-22T08:10:19.585Z,17.90
2018-02-22T08:12:51.457Z,17.40
2018-02-22T08:15:19.528Z,18.42
2018-02-22T08:18:04.521Z,17.70
2018-02-22T08:20:50.236Z,17.77
2018-02-22T08:23:18.273Z,18.85
2018-02-22T08:25:54.077Z,19.08
2018-02-22T08:28:26.141Z,18.12
2018-02-22T08:30:55.169Z,17.35
2018-02-22T08:33:25.085Z,18.25
2018-02-22T08:36:10.255Z,17.40
2018-02-22T08:38:41.897Z,18.92
2018-02-22T08:41:10.821Z,17.42
2018-02-22T08:43:40.744Z,17.65
2018-02-22T08:46:16.493Z,16.37
2018-02-22T08:48:46.465Z,17.83
2018-02-22T08:51:15.386Z,17.23
2018-02-22T08:53:50.507Z,16.42
2018-02-22T08:56:18.529Z,15.63
2018-02-22T08:58:46.572Z,15.13
2018-02-22T09:01:17.561Z,16.23
2018-02-22T09:03:51.352Z,16.30
2018-02-22T09:06:19.391Z,15.05
2018-02-22T09:09:01.724Z,15.63
2018-02-22T09:11:33.976Z,15.60
2018-02-22T09:14:07.856Z,15.02
2018-02-22T09:16:52.508Z,15.57
2018-02-22T09:19:26.924Z,15.48
2018-02-22T09:21:55.725Z,14.60
2018-02-22T09:24:27.553Z,14.90
2018-02-22T09:26:59.312Z,15.18
2018-02-22T09:29:27.341Z,15.13
2018-02-22T09:32:12.065Z,17.40
2018-02-22T09:34:40.868Z,14.93
2018-02-22T09:37:09.813Z,16.85
2018-02-22T09:39:38.732Z,14.95
2018-02-22T09:42:07.537Z,15.70
2018-02-22T09:44:36.448Z,14.85
2018-02-22T09:47:04.473Z,13.85
2018-02-22T09:49:35.185Z,16.00
2018-02-22T09:52:03.213Z,14.75
2018-02-22T09:54:39.277Z,15.18
2018-02-22T09:57:11.416Z,16.08
2018-02-22T09:59:39.452Z,14.55
2018-02-22T10:02:07.476Z,14.93
2018-02-22T10:04:39.069Z,15.15
2018-02-22T10:07:09.083Z,15.50
2018-02-22T10:09:37.109Z,15.25
2018-02-22T10:12:05.136Z,15.52
2018-02-22T10:14:38.380Z,15.40
2018-02-22T10:17:12.128Z,14.25
2018-02-22T10:19:41.117Z,14.75
2018-02-22T10:22:09.145Z,14.20
2018-02-22T10:24:43.016Z,14.73
2018-02-22T10:27:17.518Z,13.62
2018-02-22T10:29:49.592Z,13.50
2018-02-22T10:32:17.620Z,13.25
2018-02-22T10:34:51.428Z,14.85
2018-02-22T10:37:24.456Z,14.30
2018-02-22T10:39:56.408Z,13.93
2018-02-22T10:42:30.249Z,13.27
2018-02-22T10:45:03.832Z,13.35
2018-02-22T10:47:32.620Z,13.00
2018-02-22T10:50:04.546Z,13.07
2018-02-22T10:52:32.555Z,13.55
2018-02-22T10:55:01.347Z,11.88
2018-02-22T10:57:31.032Z,11.25
2018-02-22T10:59:59.053Z,10.77
2018-02-22T11:02:32.832Z,11.45
2018-02-22T11:05:01.609Z,11.12
2018-02-22T11:07:35.259Z,11.20
2018-02-22T11:10:08.780Z,11.77
2018-02-22T11:12:36.836Z,11.23
2018-02-22T11:15:04.856Z,11.15
2018-02-22T11:17:34.779Z,11.15
2018-02-22T11:20:10.648Z,11.30
2018-02-22T11:22:52.312Z,10.35
2018-02-22T11:25:28.414Z,10.77
2018-02-22T11:27:59.582Z,10.88
2018-02-22T11:30:32.348Z,11.30
2018-02-22T11:33:13.599Z,12.37
2018-02-22T11:35:41.628Z,11.20
2018-02-22T11:38:17.428Z,10.82
2018-02-22T11:40:45.488Z,11.55
2018-02-22T11:43:18.445Z,10.90
2018-02-22T11:45:46.496Z,9.75
2018-02-22T11:48:21.600Z,11.70
2018-02-22T11:50:51.660Z,11.73
2018-02-22T11:53:24.436Z,10.93
2018-02-22T11:55:55.175Z,11.90
2018-02-22T11:58:25.892Z,12.80
2018-02-22T12:00:53.920Z,12.50
2018-02-22T12:03:28.452Z,11.82
2018-02-22T12:05:56.491Z,11.50
2018-02-22T12:08:29.347Z,11.10
2018-02-22T12:11:04.066Z,11.45
2018-02-22T12:13:32.112Z,11.10
2018-02-22T12:16:00.148Z,11.15
2018-02-22T12:18:29.100Z,11.68
2018-02-22T12:20:57.128Z,11.38
2018-02-22T12:23:25.172Z,11.32
2018-02-22T12:25:53.227Z,11.27
2018-02-22T12:28:23.911Z,11.25
2018-02-22T12:30:51.964Z,12.02
2018-02-22T12:33:20.900Z,12.30
2018-02-22T12:35:52.242Z,12.43
2018-02-22T12:38:28.680Z,11.85
2018-02-22T12:41:02.636Z,12.27
2018-02-22T12:43:32.379Z,12.70
2018-02-22T12:46:01.425Z,10.60
2018-02-22T12:48:31.460Z,12.90
2018-02-22T12:51:00.271Z,12.10
2018-02-22T12:53:28.299Z,11.93
2018-02-22T12:55:56.343Z,11.82
2018-02-22T12:58:25.363Z,11.25
2018-02-22T13:00:59.174Z,11.27
2018-02-22T13:03:27.220Z,12.30
2018-02-22T13:05:55.264Z,12.48
2018-02-22T13:08:23.307Z,12.80
2018-02-22T13:10:53.288Z,12.20
2018-02-22T13:13:22.303Z,11.68
2018-02-22T13:15:54.271Z,11.75
2018-02-22T13:18:28.164Z,11.02
2018-02-22T13:20:56.191Z,10.20
2018-02-22T13:23:24.235Z,11.68
2018-02-22T13:25:55.359Z,11.00
2018-02-22T13:28:25.152Z,12.27
2018-02-22T13:30:56.903Z,11.82
2018-02-22T13:33:37.720Z,10.67
2018-02-22T13:36:06.683Z,10.23
2018-02-22T13:38:47.663Z,12.05
2018-02-22T13:41:16.487Z,13.45
2018-02-22T13:43:44.531Z,12.52
2018-02-22T13:46:12.560Z,10.82
2018-02-22T13:48:52.479Z,11.15
2018-02-22T13:51:20.508Z,9.98
2018-02-22T13:53:50.142Z,10.75
2018-02-22T13:59:23.557Z,11.30
2018-02-22T14:02:04.604Z,9.85
2018-02-22T14:04:33.412Z,11.05
2018-02-22T14:07:04.579Z,8.88
2018-02-22T14:09:33.628Z,9.82
2018-02-22T14:12:01.651Z,9.40
2018-02-22T14:14:29.655Z,8.60
2018-02-22T14:16:57.703Z,9.20
2018-02-22T14:19:25.739Z,8.95
2018-02-22T14:21:54.675Z,9.43
2018-02-22T14:24:27.143Z,8.45
2018-02-22T14:26:58.603Z,8.20
2018-02-22T14:29:26.627Z,8.50
2018-02-22T14:31:54.651Z,8.20
2018-02-22T14:34:23.639Z,8.38
2018-02-22T14:36:51.671Z,9.43
2018-02-22T14:39:19.715Z,8.30
2018-02-22T14:41:48.671Z,10.07
2018-02-22T14:44:17.579Z,9.70
2018-02-22T14:46:56.649Z,8.65
2018-02-22T14:49:25.567Z,10.10
2018-02-22T14:51:59.311Z,9.93
2018-02-22T14:54:27.343Z,9.98
2018-02-22T14:56:57.995Z,9.38
2018-02-22T14:59:27.803Z,8.95
2018-02-22T15:01:56.719Z,9.05
2018-02-22T15:04:24.763Z,8.48
2018-02-22T15:06:58.455Z,9.10
2018-02-22T15:09:29.491Z,9.25
2018-02-22T15:12:02.997Z,9.10
2018-02-22T15:14:31.016Z,9.05
2018-02-22T15:17:03.434Z,8.85
2018-02-22T15:19:32.367Z,9.02
2018-02-22T15:22:00.395Z,8.35
2018-02-22T15:24:29.323Z,8.77
2018-02-22T15:27:04.071Z,7.97
2018-02-22T15:29:33.991Z,8.05
2018-02-22T15:32:08.607Z,8.05
2018-02-22T15:34:42.303Z,7.57
2018-02-22T15:37:11.243Z,8.20
2018-02-22T15:39:41.259Z,8.48
2018-02-22T15:42:16.351Z,7.68
2018-02-22T15:44:45.263Z,8.18
2018-02-22T15:47:17.043Z,9.20
2018-02-22T15:49:45.063Z,8.15
2018-02-22T15:52:16.674Z,8.23
2018-02-22T15:54:44.704Z,7.53
2018-02-22T15:57:17.179Z,7.82
2018-02-22T15:59:47.131Z,7.95
2018-02-22T16:02:16.035Z,9.70
2018-02-22T16:04:57.827Z,7.90
2018-02-22T16:07:33.147Z,8.15
2018-02-22T16:10:02.891Z,8.35
2018-02-22T16:12:34.703Z,7.80
2018-02-22T16:15:13.127Z,7.80
2018-02-22T16:17:51.815Z,7.80
2018-02-22T16:20:32.258Z,8.15
2018-02-22T16:23:01.167Z,8.18
2018-02-22T16:25:29.183Z,7.35
2018-02-22T16:27:59.179Z,7.53
2018-02-22T16:30:27.194Z,6.95
2018-02-22T16:32:57.131Z,9.82
2018-02-22T16:35:37.743Z,7.65
2018-02-22T16:38:05.762Z,7.93
2018-02-22T16:40:54.603Z,7.45
2018-02-22T16:43:27.146Z,7.22
2018-02-22T16:45:55.179Z,7.62
2018-02-22T16:48:25.123Z,7.80
2018-02-22T16:50:58.409Z,7.60
2018-02-22T16:53:26.427Z,6.70
2018-02-22T16:55:55.367Z,8.48
2018-02-22T16:58:23.390Z,8.32
2018-02-22T17:00:51.424Z,6.87
2018-02-22T17:03:20.334Z,6.78
2018-02-22T17:06:07.064Z,7.10
2018-02-22T17:08:35.079Z,7.43
2018-02-22T17:11:03.112Z,7.00
2018-02-22T17:13:34.747Z,7.20
2018-02-22T17:16:09.295Z,7.40
2018-02-22T17:18:40.479Z,7.62
2018-02-22T17:21:14.110Z,8.30
2018-02-22T17:23:45.927Z,6.70
2018-02-22T17:26:24.227Z,6.93
2018-02-22T17:29:05.606Z,6.50
2018-02-22T17:31:39.403Z,6.97
2018-02-22T17:34:15.271Z,6.35
2018-02-22T17:36:54.818Z,7.10
2018-02-22T17:39:28.618Z,6.97
2018-02-22T17:42:03.350Z,6.82
2018-02-22T17:44:31.371Z,8.68
2018-02-22T17:46:59.411Z,6.85
2018-02-22T17:49:28.215Z,6.65
2018-02-22T17:51:59.018Z,6.65
2018-02-22T17:54:27.051Z,7.18
2018-02-22T17:56:59.362Z,7.15
2018-02-22T17:59:32.046Z,6.90
2018-02-22T18:02:00.060Z,7.43
2018-02-22T18:04:34.315Z,7.43
2018-02-22T18:07:02.347Z,7.22
2018-02-22T18:09:32.291Z,6.07
2018-02-22T18:12:06.490Z,7.22
2018-02-22T18:14:42.334Z,7.62
2018-02-22T18:17:15.347Z,6.32
2018-02-22T18:19:48.035Z,6.20
2018-02-22T18:22:16.059Z,7.40
2018-02-22T18:24:56.243Z,6.10
2018-02-22T18:27:28.310Z,6.57
2018-02-22T18:29:57.306Z,6.82
2018-02-22T18:32:26.226Z,6.20
2018-02-22T18:34:56.017Z,5.75
2018-02-22T18:37:37.587Z,6.68
2018-02-22T18:40:12.244Z,5.93
2018-02-22T18:42:49.726Z,5.60
2018-02-22T18:45:17.759Z,6.00
2018-02-22T18:47:53.286Z,6.35
2018-02-22T18:50:24.275Z,7.25
2018-02-22T18:52:57.038Z,6.05
2018-02-22T18:55:27.068Z,6.43
2018-02-22T18:57:58.519Z,6.78
2018-02-22T19:00:26.566Z,6.30
2018-02-22T19:02:56.481Z,5.62
2018-02-22T19:05:36.504Z,6.22
2018-02-22T19:08:07.796Z,6.00
2018-02-22T19:10:46.387Z,6.22
2018-02-22T19:13:15.418Z,6.22
2018-02-22T19:15:44.327Z,6.18
2018-02-22T19:18:15.022Z,5.20
2018-02-22T19:20:43.926Z,5.60
2018-02-22T19:23:13.854Z,5.70
2018-02-22T19:25:45.394Z,6.87
2018-02-22T19:28:14.317Z,5.75
2018-02-22T19:30:42.453Z,6.45
2018-02-22T19:33:16.013Z,5.75
2018-02-22T19:35:44.947Z,5.93
2018-02-22T19:38:15.171Z,5.68
2018-02-22T19:40:58.978Z,6.07
2018-02-22T19:43:28.993Z,5.43
2018-02-22T19:45:59.734Z,7.60
2018-02-22T19:48:33.198Z,5.60
2018-02-22T19:51:04.758Z,6.07
2018-02-22T19:53:34.545Z,4.90
2018-02-22T19:56:03.770Z,5.75
2018-02-22T19:58:32.610Z,5.60
2018-02-22T20:01:07.340Z,5.55
2018-02-22T20:03:39.790Z,6.37
2018-02-22T20:06:10.470Z,5.40
2018-02-22T20:08:41.942Z,6.55
2018-02-22T20:11:15.746Z,5.87
2018-02-22T20:13:49.834Z,5.70
2018-02-22T20:16:26.954Z,6.18
2018-02-22T20:18:58.522Z,5.85
2018-02-22T20:24:02.665Z,6.03
2018-02-22T20:26:31.410Z,6.32
2018-02-22T20:37:00.914Z,5.90
2018-02-22T20:39:39.553Z,6.20
2018-02-22T20:42:11.862Z,7.10
2018-02-22T20:47:16.190Z,6.87
2018-02-22T20:49:48.442Z,5.57
2018-02-22T20:52:19.789Z,6.25
2018-02-22T20:54:54.402Z,6.80
2018-02-22T20:57:27.725Z,6.03
2018-02-22T20:59:56.989Z,7.00
2018-02-22T21:10:23.434Z,6.95
2018-02-22T21:12:51.494Z,7.25
2018-02-22T21:15:19.578Z,8.40
2018-02-22T21:17:50.722Z,7.65
2018-02-22T21:20:27.009Z,7.15
2018-02-22T21:22:56.029Z,7.90
2018-02-22T21:25:24.086Z,8.57
2018-02-22T21:27:55.729Z,7.00
2018-02-22T21:30:26.518Z,7.93
2018-02-22T21:32:56.594Z,7.95
2018-02-22T21:35:31.845Z,7.85
2018-02-22T21:38:02.670Z,8.18
2018-02-22T21:40:39.488Z,7.93
2018-02-22T21:43:10.589Z,7.87
2018-02-22T21:45:40.115Z,8.10
2018-02-22T21:48:08.714Z,7.45
2018-02-22T21:50:37.904Z,8.15
2018-02-22T21:53:10.854Z,7.45
2018-02-22T21:55:41.457Z,7.82
2018-02-22T21:58:12.534Z,7.53
2018-02-22T22:00:46.509Z,9.27
2018-02-22T22:03:21.753Z,7.97
2018-02-22T22:05:55.289Z,9.07
2018-02-22T22:08:34.697Z,9.75
2018-02-22T22:11:03.917Z,8.32
2018-02-22T22:13:37.289Z,8.20
2018-02-22T22:16:09.881Z,8.48
2018-02-22T22:18:41.415Z,9.40
2018-02-22T22:21:10.238Z,10.05
2018-02-22T22:23:39.253Z,9.10
2018-02-22T22:26:13.977Z,9.30
2018-02-22T22:28:49.753Z,9.45
2018-02-22T22:31:23.965Z,8.45
2018-02-22T22:33:56.765Z,9.32
2018-02-22T22:36:24.821Z,9.18
2018-02-22T22:38:53.841Z,8.85
2018-02-22T22:41:27.193Z,10.43
2018-02-22T22:43:58.360Z,8.55
2018-02-22T22:46:29.353Z,9.23
2018-02-22T22:48:59.065Z,8.75
2018-02-22T22:51:27.129Z,9.43
2018-02-22T22:53:57.117Z,8.65
2018-02-22T22:56:25.193Z,10.43
2018-02-22T22:58:55.593Z,10.45
2018-02-22T23:01:24.496Z,9.57
2018-02-22T23:03:56.341Z,9.90
2018-02-22T23:06:25.448Z,9.73
2018-02-22T23:42:48.522Z,10.63
2018-02-22T23:45:23.200Z,9.90
2018-02-22T23:47:52.768Z,8.77
2018-02-22T23:50:20.797Z,9.57
2018-02-22T23:52:48.865Z,9.90
2018-02-22T23:55:29.120Z,8.95
2018-02-22T23:58:04.901Z,9.43
